Time;durP1;ratioP1;P1;durP2;ratioP2;P2;SDS_P1;SDS_P2;PMS_P1;PMS_P2;Temp;Humidity;BMP_temperature;BMP_pressure;BME280_temperature;BME280_humidity;BME280_pressure;Samples;Min_cycle;Max_cycle;Signal;HPM_P1;HPM_P2
2023/05/27 00:01:40;;;;;;;;;12.67;7.00;;;;;;;;4957033;28;45795;-83
2023/05/27 00:04:06;;;;;;;;;14.67;8.00;;;;;;;;4971437;28;45432;-84
2023/05/27 00:06:31;;;;;;;;;10.00;5.67;;;;;;;;4953302;28;45583;-83
2023/05/27 00:08:56;;;;;;;;;7.33;5.00;;;;;;;;4952713;28;45392;-83
2023/05/27 00:11:22;;;;;;;;;9.00;7.00;;;;;;;;4955353;28;45772;-81
2023/05/27 00:13:47;;;;;;;;;10.00;8.00;;;;;;;;4947786;28;46231;-80
2023/05/27 00:16:12;;;;;;;;;7.67;5.00;;;;;;;;4971296;28;45460;-83
2023/05/27 00:18:38;;;;;;;;;8.00;5.67;;;;;;;;4963397;28;45366;-82
2023/05/27 00:21:04;;;;;;;;;9.00;6.00;;;;;;;;4952875;28;45363;-82
2023/05/27 00:23:29;;;;;;;;;7.00;6.00;;;;;;;;4971497;28;45291;-84
2023/05/27 00:25:54;;;;;;;;;9.67;9.33;;;;;;;;4973050;28;45618;-82
2023/05/27 00:28:19;;;;;;;;;4.33;3.00;;;;;;;;4962460;28;45621;-82
2023/05/27 00:30:45;;;;;;;;;7.00;6.33;;;;;;;;4962869;28;45676;-84
2023/05/27 00:33:10;;;;;;;;;4.67;4.00;;;;;;;;4959812;28;45495;-81
2023/05/27 00:35:35;;;;;;;;;6.67;3.67;;;;;;;;4956886;28;45710;-82
2023/05/27 00:38:00;;;;;;;;;10.33;5.33;;;;;;;;4964709;28;47256;-83
2023/05/27 00:40:27;;;;;;;;;8.33;7.67;;;;;;;;4969247;28;45700;-82
2023/05/27 00:42:53;;;;;;;;;12.33;7.33;;;;;;;;4958079;28;45760;-83
2023/05/27 00:45:18;;;;;;;;;13.00;8.00;;;;;;;;4963139;28;45794;-82
2023/05/27 00:47:44;;;;;;;;;5.00;5.00;;;;;;;;4960674;28;45742;-81
2023/05/27 00:50:10;;;;;;;;;12.00;8.00;;;;;;;;4970258;28;45881;-82
2023/05/27 00:52:35;;;;;;;;;10.00;7.67;;;;;;;;4958578;28;45342;-82
2023/05/27 00:55:01;;;;;;;;;3.33;3.33;;;;;;;;4958362;28;46666;-81
2023/05/27 00:57:26;;;;;;;;;5.33;5.00;;;;;;;;4962127;28;45439;-82
2023/05/27 00:59:52;;;;;;;;;6.33;5.00;;;;;;;;4964307;28;45771;-81
2023/05/27 01:02:17;;;;;;;;;7.00;4.33;;;;;;;;4956881;28;45440;-81
2023/05/27 01:04:43;;;;;;;;;10.33;8.00;;;;;;;;4961233;28;45379;-80
2023/05/27 01:07:10;;;;;;;;;12.00;7.33;;;;;;;;4947934;28;45421;-82
2023/05/27 01:09:58;;;;;;;;;8.33;6.33;;;;;;;;4949772;28;45386;-83
2023/05/27 01:12:42;;;;;;;;;9.00;6.33;;;;;;;;4966371;28;45412;-81
2023/05/27 01:15:07;;;;;;;;;14.00;9.00;;;;;;;;4958501;28;45419;-82
2023/05/27 01:17:37;;;;;;;;;13.00;8.00;;;;;;;;4959500;28;45444;-81
2023/05/27 01:20:05;;;;;;;;;11.33;7.67;;;;;;;;4970653;28;45595;-81
2023/05/27 01:22:31;;;;;;;;;9.33;7.33;;;;;;;;4958273;28;45477;-82
2023/05/27 01:24:56;;;;;;;;;4.33;3.33;;;;;;;;4971040;28;45437;-80
2023/05/27 01:27:24;;;;;;;;;6.67;6.67;;;;;;;;4962941;28;45553;-82
2023/05/27 01:29:50;;;;;;;;;9.00;6.33;;;;;;;;4962183;28;45411;-82
2023/05/27 01:32:24;;;;;;;;;9.00;7.33;;;;;;;;4950199;28;45543;-81
2023/05/27 01:34:53;;;;;;;;;14.67;6.67;;;;;;;;4961128;28;45814;-80
2023/05/27 01:37:19;;;;;;;;;7.33;5.00;;;;;;;;4968028;28;45488;-82
2023/05/27 01:39:45;;;;;;;;;7.00;5.00;;;;;;;;4953473;28;45675;-81
2023/05/27 01:42:10;;;;;;;;;12.00;8.33;;;;;;;;4956843;28;45715;-82
2023/05/27 01:44:36;;;;;;;;;7.67;6.33;;;;;;;;4955902;28;46845;-81
2023/05/27 01:47:01;;;;;;;;;8.00;6.33;;;;;;;;4975426;28;46604;-80
2023/05/27 01:49:27;;;;;;;;;10.67;6.33;;;;;;;;4961247;28;45480;-81
2023/05/27 01:51:52;;;;;;;;;8.67;7.67;;;;;;;;4962090;28;45245;-80
2023/05/27 01:54:18;;;;;;;;;7.67;5.33;;;;;;;;4965151;28;45800;-81
2023/05/27 01:56:43;;;;;;;;;6.00;4.67;;;;;;;;4967866;28;45984;-81
2023/05/27 01:59:08;;;;;;;;;8.00;7.00;;;;;;;;4967161;28;45785;-80
2023/05/27 02:01:34;;;;;;;;;9.33;7.33;;;;;;;;4959829;28;45401;-80
2023/05/27 02:03:59;;;;;;;;;6.67;6.67;;;;;;;;4958277;28;45546;-80
2023/05/27 02:06:25;;;;;;;;;9.33;8.33;;;;;;;;4942814;28;46475;-79
2023/05/27 02:08:50;;;;;;;;;5.00;5.00;;;;;;;;4961491;28;45481;-81
2023/05/27 02:11:15;;;;;;;;;10.00;8.00;;;;;;;;4967813;28;45479;-81
2023/05/27 02:13:41;;;;;;;;;6.00;6.00;;;;;;;;4970194;28;45888;-82
2023/05/27 02:16:06;;;;;;;;;7.33;5.00;;;;;;;;4968825;28;45285;-82
2023/05/27 02:18:32;;;;;;;;;7.67;7.00;;;;;;;;4963471;28;45403;-82
2023/05/27 02:20:57;;;;;;;;;8.00;6.00;;;;;;;;4964082;28;45412;-82
2023/05/27 02:23:23;;;;;;;;;6.67;5.33;;;;;;;;4955865;28;45387;-80
2023/05/27 02:25:49;;;;;;;;;4.33;4.33;;;;;;;;4948181;28;47177;-82
2023/05/27 02:28:14;;;;;;;;;9.00;7.67;;;;;;;;4960369;28;45436;-82
2023/05/27 02:30:42;;;;;;;;;7.00;4.00;;;;;;;;4961869;28;45438;-80
2023/05/27 02:33:07;;;;;;;;;10.00;8.00;;;;;;;;4956298;28;45416;-81
2023/05/27 02:35:33;;;;;;;;;7.00;6.33;;;;;;;;4954455;28;46923;-80
2023/05/27 02:37:58;;;;;;;;;8.33;5.67;;;;;;;;4961169;28;45686;-81
2023/05/27 02:40:24;;;;;;;;;11.00;7.67;;;;;;;;4953843;28;45756;-81
2023/05/27 02:42:50;;;;;;;;;10.33;8.33;;;;;;;;4962635;28;46483;-81
2023/05/27 02:45:15;;;;;;;;;9.00;6.33;;;;;;;;4961068;28;46466;-80
2023/05/27 02:47:40;;;;;;;;;11.67;8.33;;;;;;;;4957469;28;45347;-80
2023/05/27 02:50:07;;;;;;;;;6.33;4.00;;;;;;;;4951327;28;45634;-81
2023/05/27 02:52:33;;;;;;;;;11.67;6.33;;;;;;;;4960685;28;45549;-81
2023/05/27 02:54:58;;;;;;;;;8.67;7.67;;;;;;;;4958988;28;45511;-81
2023/05/27 02:57:23;;;;;;;;;5.33;5.33;;;;;;;;4955441;28;45778;-81
2023/05/27 02:59:49;;;;;;;;;10.00;6.67;;;;;;;;4959177;28;45794;-81
2023/05/27 03:02:14;;;;;;;;;4.67;4.67;;;;;;;;4953137;28;45539;-81
2023/05/27 03:04:40;;;;;;;;;5.00;5.00;;;;;;;;4954244;28;47457;-81
2023/05/27 03:07:05;;;;;;;;;7.67;5.00;;;;;;;;4956064;28;46018;-81
2023/05/27 03:09:30;;;;;;;;;9.33;5.33;;;;;;;;4962236;28;45706;-82
2023/05/27 03:11:56;;;;;;;;;8.00;8.00;;;;;;;;4958141;28;45632;-81
2023/05/27 03:14:21;;;;;;;;;4.67;4.67;;;;;;;;4955248;28;45549;-81
2023/05/27 03:16:46;;;;;;;;;3.00;1.00;;;;;;;;4940404;28;45763;-81
2023/05/27 03:19:11;;;;;;;;;6.33;6.33;;;;;;;;4953904;28;45478;-80
2023/05/27 03:21:37;;;;;;;;;7.67;6.33;;;;;;;;4953699;28;46440;-81
2023/05/27 03:24:02;;;;;;;;;9.00;7.00;;;;;;;;4947288;28;45813;-81
2023/05/27 03:26:28;;;;;;;;;8.33;3.67;;;;;;;;4951187;28;45408;-80
2023/05/27 03:28:53;;;;;;;;;8.67;6.33;;;;;;;;4955296;28;45792;-81
2023/05/27 03:31:19;;;;;;;;;8.33;5.33;;;;;;;;4957509;28;45818;-83
2023/05/27 03:33:44;;;;;;;;;9.00;7.33;;;;;;;;4957833;28;46320;-83
2023/05/27 03:36:09;;;;;;;;;7.67;2.67;;;;;;;;4951010;28;45666;-87
2023/05/27 03:38:35;;;;;;;;;6.67;6.67;;;;;;;;4956899;28;45754;-85
2023/05/27 03:41:00;;;;;;;;;3.00;1.33;;;;;;;;4960191;28;45516;-85
2023/05/27 03:43:26;;;;;;;;;7.33;7.33;;;;;;;;4962624;28;45974;-85
2023/05/27 03:45:51;;;;;;;;;9.33;6.67;;;;;;;;4959657;28;45541;-85
2023/05/27 03:48:17;;;;;;;;;6.00;5.00;;;;;;;;4946396;28;45373;-84
2023/05/27 03:50:42;;;;;;;;;13.67;9.00;;;;;;;;4956773;28;47374;-85
2023/05/27 03:53:07;;;;;;;;;8.33;3.00;;;;;;;;4964670;28;46055;-85
2023/05/27 03:55:33;;;;;;;;;7.33;6.33;;;;;;;;4965641;28;45703;-82
2023/05/27 03:57:58;;;;;;;;;7.67;7.00;;;;;;;;4945180;28;45800;-85
2023/05/27 04:00:24;;;;;;;;;5.33;5.33;;;;;;;;4952234;28;45553;-85
2023/05/27 04:02:49;;;;;;;;;8.33;6.67;;;;;;;;4966642;28;46211;-85
2023/05/27 04:05:16;;;;;;;;;10.67;7.33;;;;;;;;4962525;28;45639;-83
2023/05/27 04:07:42;;;;;;;;;8.00;5.67;;;;;;;;4970529;28;45547;-83
2023/05/27 04:10:07;;;;;;;;;8.33;7.33;;;;;;;;4963184;28;45810;-82
2023/05/27 04:12:33;;;;;;;;;9.00;6.33;;;;;;;;4964320;28;45406;-83
2023/05/27 04:14:58;;;;;;;;;8.00;6.67;;;;;;;;4958923;28;45860;-82
2023/05/27 04:17:23;;;;;;;;;7.00;5.00;;;;;;;;4959966;28;45940;-83
2023/05/27 04:19:49;;;;;;;;;14.67;7.00;;;;;;;;4958037;28;47394;-84
2023/05/27 04:22:14;;;;;;;;;13.67;12.00;;;;;;;;4958737;28;46593;-81
2023/05/27 04:24:40;;;;;;;;;15.00;13.00;;;;;;;;4947479;28;45818;-82
2023/05/27 04:27:06;;;;;;;;;10.67;8.00;;;;;;;;4953911;28;45815;-84
2023/05/27 04:29:32;;;;;;;;;10.33;7.67;;;;;;;;4952879;28;45445;-82
2023/05/27 04:31:58;;;;;;;;;12.00;8.67;;;;;;;;4954596;28;45786;-83
2023/05/27 04:34:23;;;;;;;;;41.67;36.00;;;;;;;;4954375;28;45662;-83
2023/05/27 04:36:49;;;;;;;;;11.00;8.67;;;;;;;;4947831;28;45766;-83
2023/05/27 04:39:15;;;;;;;;;5.00;4.00;;;;;;;;4949439;28;45724;-84
2023/05/27 04:41:41;;;;;;;;;11.67;7.33;;;;;;;;4952845;28;47283;-83
2023/05/27 04:44:06;;;;;;;;;6.33;6.33;;;;;;;;4958208;28;45457;-83
2023/05/27 04:46:33;;;;;;;;;7.67;6.67;;;;;;;;4952155;28;45426;-85
2023/05/27 04:48:59;;;;;;;;;7.33;5.67;;;;;;;;4946047;28;46188;-84
2023/05/27 04:51:24;;;;;;;;;5.33;4.00;;;;;;;;4955412;28;46077;-83
2023/05/27 04:53:50;;;;;;;;;8.67;4.00;;;;;;;;4947367;28;45349;-83
2023/05/27 04:56:17;;;;;;;;;7.67;7.67;;;;;;;;4947679;28;45418;-84
2023/05/27 04:58:43;;;;;;;;;7.00;3.00;;;;;;;;4954472;28;45432;-85
2023/05/27 05:01:16;;;;;;;;;9.00;7.00;;;;;;;;4950288;28;45779;-84
2023/05/27 05:03:51;;;;;;;;;6.67;5.00;;;;;;;;4953772;28;45819;-83
2023/05/27 05:06:17;;;;;;;;;9.67;7.33;;;;;;;;4954145;28;45959;-84
2023/05/27 05:08:42;;;;;;;;;6.33;5.00;;;;;;;;4953888;28;45704;-85
2023/05/27 05:11:08;;;;;;;;;13.67;6.00;;;;;;;;4960680;28;46991;-84
2023/05/27 05:13:33;;;;;;;;;4.67;4.33;;;;;;;;4942518;28;45399;-83
2023/05/27 05:15:58;;;;;;;;;8.00;5.33;;;;;;;;4951235;28;45460;-85
2023/05/27 05:18:23;;;;;;;;;7.33;4.67;;;;;;;;4949536;28;45603;-84
2023/05/27 05:20:49;;;;;;;;;7.00;6.00;;;;;;;;4953670;28;46042;-83
2023/05/27 05:23:14;;;;;;;;;6.67;5.33;;;;;;;;4947826;28;45597;-85
2023/05/27 05:25:40;;;;;;;;;7.00;5.00;;;;;;;;4959658;28;44659;-86
2023/05/27 05:28:05;;;;;;;;;4.00;4.00;;;;;;;;4961702;28;45617;-85
2023/05/27 05:30:31;;;;;;;;;6.00;5.00;;;;;;;;4960445;28;45843;-86
2023/05/27 05:32:57;;;;;;;;;10.33;7.33;;;;;;;;4966614;28;45478;-83
2023/05/27 05:35:23;;;;;;;;;7.33;5.00;;;;;;;;4942518;28;45511;-85
2023/05/27 05:37:49;;;;;;;;;10.00;5.00;;;;;;;;4945401;28;46924;-82
2023/05/27 05:40:14;;;;;;;;;4.67;3.67;;;;;;;;4946952;28;45570;-84
2023/05/27 05:42:39;;;;;;;;;9.00;6.67;;;;;;;;4945201;28;45745;-80
2023/05/27 05:45:05;;;;;;;;;4.67;4.67;;;;;;;;4953504;28;45464;-82
2023/05/27 05:47:30;;;;;;;;;7.00;6.67;;;;;;;;4947770;28;45402;-81
2023/05/27 05:49:56;;;;;;;;;7.67;7.00;;;;;;;;4936931;28;45830;-83
2023/05/27 05:52:21;;;;;;;;;5.75;4.25;;;;;;;;4950147;28;45513;-82
2023/05/27 05:54:46;;;;;;;;;6.00;6.00;;;;;;;;4949951;28;45583;-83
2023/05/27 05:57:11;;;;;;;;;8.00;5.00;;;;;;;;4952180;28;45884;-84
2023/05/27 05:59:37;;;;;;;;;7.25;5.00;;;;;;;;4946681;28;46509;-83
2023/05/27 06:02:02;;;;;;;;;4.75;4.25;;;;;;;;4940029;28;46465;-81
2023/05/27 06:04:27;;;;;;;;;6.00;3.00;;;;;;;;4937255;28;45946;-80
2023/05/27 06:06:52;;;;;;;;;8.25;6.25;;;;;;;;4942956;28;45460;-80
2023/05/27 06:09:18;;;;;;;;;7.00;3.75;;;;;;;;4950162;28;45751;-80
2023/05/27 06:11:43;;;;;;;;;7.00;4.50;;;;;;;;4945735;28;45638;-80
2023/05/27 06:14:08;;;;;;;;;5.00;4.50;;;;;;;;4944615;28;45483;-81
2023/05/27 06:16:39;;;;;;;;;3.75;3.75;;;;;;;;4948245;28;45512;-82
2023/05/27 06:19:04;;;;;;;;;7.25;5.00;;;;;;;;4950734;28;46363;-83
2023/05/27 06:21:31;;;;;;;;;6.00;6.00;;;;;;;;4951970;28;45565;-81
2023/05/27 06:23:56;;;;;;;;;7.25;7.25;;;;;;;;4942667;28;45639;-80
2023/05/27 06:26:22;;;;;;;;;5.00;5.00;;;;;;;;4956301;28;45989;-81
2023/05/27 06:28:47;;;;;;;;;5.50;5.50;;;;;;;;4954578;28;46360;-80
2023/05/27 06:31:12;;;;;;;;;7.75;5.75;;;;;;;;4947021;28;45563;-82
2023/05/27 06:33:38;;;;;;;;;6.75;5.50;;;;;;;;4948921;28;45731;-81
2023/05/27 06:36:04;;;;;;;;;4.25;4.25;;;;;;;;4940790;28;45984;-81
2023/05/27 06:38:29;;;;;;;;;4.00;4.00;;;;;;;;4947052;28;45756;-82
2023/05/27 06:40:54;;;;;;;;;5.25;5.00;;;;;;;;4948629;28;45462;-80
2023/05/27 06:43:20;;;;;;;;;2.00;2.00;;;;;;;;4953938;28;45742;-82
2023/05/27 06:45:45;;;;;;;;;7.00;7.00;;;;;;;;4943488;28;45627;-82
2023/05/27 06:48:10;;;;;;;;;5.25;4.50;;;;;;;;4950237;28;45813;-82
2023/05/27 06:50:35;;;;;;;;;9.50;6.50;;;;;;;;4942399;28;45845;-82
2023/05/27 06:53:01;;;;;;;;;7.00;3.75;;;;;;;;4948528;28;45535;-84
2023/05/27 06:55:26;;;;;;;;;8.00;6.25;;;;;;;;4945668;28;45510;-82
2023/05/27 06:57:52;;;;;;;;;10.00;7.25;;;;;;;;4949912;28;45473;-81
2023/05/27 07:00:17;;;;;;;;;9.00;5.75;;;;;;;;4973338;28;45312;-84
2023/05/27 07:02:42;;;;;;;;;7.00;7.00;;;;;;;;4957444;28;45890;-83
2023/05/27 07:05:08;;;;;;;;;7.50;7.00;;;;;;;;4952145;28;46545;-83
2023/05/27 07:07:33;;;;;;;;;8.00;7.00;;;;;;;;4955599;28;46379;-82
2023/05/27 07:09:58;;;;;;;;;4.00;4.00;;;;;;;;4943465;28;45525;-84
2023/05/27 07:12:24;;;;;;;;;5.00;5.00;;;;;;;;4961360;28;45362;-83
2023/05/27 07:14:49;;;;;;;;;7.00;3.00;;;;;;;;4945880;28;45703;-82
2023/05/27 07:17:15;;;;;;;;;6.25;6.00;;;;;;;;4964957;28;45496;-84
2023/05/27 07:19:40;;;;;;;;;9.50;7.00;;;;;;;;4960807;28;45637;-85
2023/05/27 07:22:05;;;;;;;;;7.25;5.00;;;;;;;;4971665;28;45623;-84
2023/05/27 07:24:31;;;;;;;;;6.25;6.25;;;;;;;;4950490;28;46178;-85
2023/05/27 07:26:57;;;;;;;;;9.50;5.50;;;;;;;;4954153;28;45783;-81
2023/05/27 07:29:22;;;;;;;;;5.50;5.25;;;;;;;;4957769;28;45480;-83
2023/05/27 07:31:47;;;;;;;;;7.50;5.25;;;;;;;;4976292;28;45455;-87
2023/05/27 07:34:13;;;;;;;;;6.75;6.00;;;;;;;;4954041;28;45679;-82
2023/05/27 07:36:38;;;;;;;;;5.25;2.50;;;;;;;;4954879;28;47385;-83
2023/05/27 07:39:03;;;;;;;;;5.00;5.00;;;;;;;;4948735;28;45411;-81
2023/05/27 07:41:29;;;;;;;;;7.50;4.50;;;;;;;;4966637;28;45745;-83
2023/05/27 07:43:55;;;;;;;;;9.00;7.25;;;;;;;;4960179;28;45326;-84
2023/05/27 07:46:20;;;;;;;;;7.00;5.75;;;;;;;;4955878;28;45432;-82
2023/05/27 07:48:45;;;;;;;;;12.00;8.50;;;;;;;;4952393;28;45808;-83
2023/05/27 07:51:11;;;;;;;;;9.75;8.25;;;;;;;;4966123;28;45592;-82
2023/05/27 07:53:36;;;;;;;;;23.33;22.00;;;;;;;;4966867;28;45389;-82
2023/05/27 07:56:02;;;;;;;;;6.00;6.00;;;;;;;;4942343;28;47229;-82
2023/05/27 07:58:28;;;;;;;;;8.50;7.50;;;;;;;;4951888;28;45760;-83
2023/05/27 08:00:53;;;;;;;;;7.25;4.50;;;;;;;;4971065;28;45917;-88
2023/05/27 08:03:18;;;;;;;;;7.00;6.00;;;;;;;;4952638;28;45468;-81
2023/05/27 08:05:44;;;;;;;;;7.50;7.25;;;;;;;;4962538;28;46995;-80
2023/05/27 08:08:09;;;;;;;;;5.50;5.50;;;;;;;;4954196;28;45537;-82
2023/05/27 08:10:34;;;;;;;;;6.00;4.25;;;;;;;;4949559;28;46304;-80
2023/05/27 08:13:00;;;;;;;;;6.75;6.25;;;;;;;;4962533;28;45915;-85
2023/05/27 08:15:26;;;;;;;;;7.00;5.75;;;;;;;;4958198;28;45543;-82
2023/05/27 08:17:52;;;;;;;;;9.00;5.50;;;;;;;;4970916;28;45634;-83
2023/05/27 08:20:17;;;;;;;;;10.75;5.00;;;;;;;;4959433;28;45360;-82
2023/05/27 08:22:43;;;;;;;;;7.00;7.00;;;;;;;;4967891;28;45763;-81
2023/05/27 08:25:08;;;;;;;;;7.50;6.00;;;;;;;;4960569;28;47061;-81
2023/05/27 08:27:50;;;;;;;;;3.00;3.00;;;;;;;;4966828;28;45437;-82
2023/05/27 08:30:16;;;;;;;;;6.25;6.00;;;;;;;;4959477;28;45490;-83
2023/05/27 08:32:42;;;;;;;;;6.00;5.25;;;;;;;;4966427;28;45600;-82
2023/05/27 08:35:07;;;;;;;;;7.00;5.75;;;;;;;;4962503;28;46981;-82
2023/05/27 08:37:33;;;;;;;;;7.00;6.50;;;;;;;;4964606;28;45829;-81
2023/05/27 08:39:58;;;;;;;;;8.75;6.25;;;;;;;;4968521;28;45295;-83
2023/05/27 08:42:24;;;;;;;;;9.25;5.50;;;;;;;;4957307;28;46311;-83
2023/05/27 08:44:50;;;;;;;;;10.75;8.25;;;;;;;;4953515;28;45319;-84
2023/05/27 08:47:15;;;;;;;;;6.75;6.50;;;;;;;;4961550;28;45358;-83
2023/05/27 08:49:41;;;;;;;;;6.50;4.75;;;;;;;;4967546;28;45314;-82
2023/05/27 08:52:08;;;;;;;;;7.00;6.00;;;;;;;;4966582;28;45562;-82
2023/05/27 08:54:34;;;;;;;;;7.00;6.25;;;;;;;;4951530;28;45496;-82
2023/05/27 08:57:00;;;;;;;;;6.50;6.00;;;;;;;;4960696;28;45483;-86
2023/05/27 08:59:26;;;;;;;;;6.50;6.00;;;;;;;;4970445;28;45518;-83
2023/05/27 09:01:51;;;;;;;;;6.75;6.75;;;;;;;;4967442;28;45378;-84
2023/05/27 09:04:16;;;;;;;;;6.00;6.00;;;;;;;;4977084;28;46165;-82
2023/05/27 09:06:42;;;;;;;;;7.00;6.00;;;;;;;;4955725;28;46364;-83
2023/05/27 09:09:09;;;;;;;;;7.75;6.00;;;;;;;;4952231;28;45438;-83
2023/05/27 09:11:38;;;;;;;;;8.50;6.25;;;;;;;;4952492;28;45774;-83
2023/05/27 09:14:03;;;;;;;;;11.25;5.75;;;;;;;;4959145;28;47692;-82
2023/05/27 09:16:29;;;;;;;;;10.00;9.00;;;;;;;;4959486;28;45704;-84
2023/05/27 09:18:54;;;;;;;;;6.50;4.25;;;;;;;;4957907;28;45542;-81
2023/05/27 09:21:19;;;;;;;;;5.25;4.25;;;;;;;;4967736;28;45476;-82
2023/05/27 09:23:45;;;;;;;;;6.00;6.00;;;;;;;;4951037;28;46019;-83
2023/05/27 09:26:10;;;;;;;;;6.75;6.00;;;;;;;;4959830;28;45449;-83
2023/05/27 09:28:36;;;;;;;;;5.75;5.25;;;;;;;;4964498;28;45451;-84
2023/05/27 09:31:04;;;;;;;;;6.50;5.50;;;;;;;;4966935;28;45652;-83
2023/05/27 09:33:31;;;;;;;;;5.75;5.75;;;;;;;;4964349;28;45878;-84
2023/05/27 09:35:56;;;;;;;;;8.00;6.00;;;;;;;;4950403;28;45467;-83
2023/05/27 09:38:22;;;;;;;;;6.75;5.50;;;;;;;;4954048;28;45402;-83
2023/05/27 09:40:47;;;;;;;;;5.50;5.00;;;;;;;;4957680;28;45722;-82
2023/05/27 09:43:14;;;;;;;;;6.50;4.75;;;;;;;;4963483;28;47543;-83
2023/05/27 09:45:40;;;;;;;;;8.75;5.00;;;;;;;;4949754;28;45638;-84
2023/05/27 09:48:06;;;;;;;;;10.50;8.00;;;;;;;;4959339;28;45809;-83
2023/05/27 09:50:33;;;;;;;;;7.00;6.75;;;;;;;;4959054;28;45563;-83
2023/05/27 09:52:58;;;;;;;;;8.00;7.75;;;;;;;;4955525;28;45817;-83
2023/05/27 09:55:23;;;;;;;;;6.25;6.25;;;;;;;;4962920;28;45673;-83
2023/05/27 09:57:50;;;;;;;;;7.25;5.50;;;;;;;;4968401;28;46107;-83
2023/05/27 10:00:18;;;;;;;;;7.75;6.75;;;;;;;;4971254;28;45402;-84
2023/05/27 10:02:47;;;;;;;;;9.00;6.50;;;;;;;;4964803;28;45504;-83
2023/05/27 10:05:13;;;;;;;;;6.00;6.00;;;;;;;;4968081;28;45938;-84
2023/05/27 10:07:40;;;;;;;;;7.00;5.50;;;;;;;;4965115;28;45360;-82
2023/05/27 10:10:09;;;;;;;;;9.25;9.25;;;;;;;;4963011;28;45847;-84
2023/05/27 10:12:42;;;;;;;;;8.00;7.25;;;;;;;;4962262;28;45547;-82
2023/05/27 10:15:08;;;;;;;;;8.25;5.00;;;;;;;;4968789;28;45801;-83
2023/05/27 10:17:48;;;;;;;;;13.00;9.50;;;;;;;;4972980;28;45515;-82
2023/05/27 10:20:52;;;;;;;;;11.25;11.25;;;;;;;;4965394;28;46084;-82
2023/05/27 10:23:20;;;;;;;;;9.00;7.50;;;;;;;;4926545;28;45667;-82
2023/05/27 10:25:47;;;;;;;;;9.75;6.50;;;;;;;;4945984;28;45393;-81
2023/05/27 10:28:25;;;;;;;;;7.25;6.25;;;;;;;;4962275;28;45433;-82
2023/05/27 10:30:51;;;;;;;;;9.00;6.00;;;;;;;;4969265;28;45575;-79
2023/05/27 10:33:16;;;;;;;;;8.00;5.50;;;;;;;;4960937;28;45587;-81
2023/05/27 10:35:42;;;;;;;;;8.00;7.00;;;;;;;;4956482;28;44839;-84
2023/05/27 10:38:15;;;;;;;;;7.00;7.00;;;;;;;;4963708;28;45369;-86
2023/05/27 10:40:41;;;;;;;;;6.25;6.25;;;;;;;;4951661;28;45873;-82
2023/05/27 10:43:14;;;;;;;;;10.00;7.00;;;;;;;;4957391;28;45617;-81
2023/05/27 10:45:39;;;;;;;;;11.25;7.00;;;;;;;;4959436;28;45515;-80
2023/05/27 10:48:14;;;;;;;;;11.50;7.25;;;;;;;;4957140;28;45715;-82
2023/05/27 10:50:40;;;;;;;;;9.00;6.00;;;;;;;;4962467;28;45849;-82
2023/05/27 10:53:07;;;;;;;;;20.00;15.33;;;;;;;;4962971;28;45741;-81
2023/05/27 10:55:32;;;;;;;;;9.75;5.75;;;;;;;;4957857;28;45936;-81
2023/05/27 10:57:58;;;;;;;;;8.00;6.25;;;;;;;;4962170;28;45762;-81
2023/05/27 11:00:26;;;;;;;;;7.00;7.00;;;;;;;;4959346;28;45736;-83
2023/05/27 11:02:51;;;;;;;;;9.50;7.00;;;;;;;;4945515;28;47380;-83
2023/05/27 11:05:19;;;;;;;;;8.25;7.00;;;;;;;;4956926;28;45354;-82
2023/05/27 11:07:44;;;;;;;;;6.75;6.75;;;;;;;;4970746;28;45846;-85
2023/05/27 11:10:10;;;;;;;;;9.25;6.75;;;;;;;;4963148;28;46814;-83
2023/05/27 11:12:35;;;;;;;;;8.00;7.00;;;;;;;;4960761;28;47080;-83
2023/05/27 11:15:01;;;;;;;;;9.25;7.75;;;;;;;;4964301;28;45460;-82
2023/05/27 11:17:27;;;;;;;;;9.50;7.25;;;;;;;;4957872;28;45481;-81
2023/05/27 11:19:53;;;;;;;;;7.25;6.00;;;;;;;;4968625;28;45880;-82
2023/05/27 11:22:19;;;;;;;;;9.25;6.25;;;;;;;;4966162;28;45690;-84
2023/05/27 11:25:05;;;;;;;;;5.00;3.50;;;;;;;;4971719;28;45358;-83
2023/05/27 11:27:38;;;;;;;;;9.00;7.75;;;;;;;;4954990;28;45588;-85
2023/05/27 11:30:11;;;;;;;;;6.50;4.50;;;;;;;;4956714;28;45582;-89
2023/05/27 11:32:37;;;;;;;;;7.50;7.50;;;;;;;;4961226;28;47390;-83
2023/05/27 11:35:03;;;;;;;;;11.50;10.75;;;;;;;;4959022;28;45924;-82
2023/05/27 11:37:32;;;;;;;;;3.00;3.00;;;;;;;;4953659;28;45390;-83
2023/05/27 11:39:58;;;;;;;;;11.00;6.25;;;;;;;;4960917;28;45572;-82
2023/05/27 11:42:23;;;;;;;;;11.25;11.25;;;;;;;;4967124;28;45599;-84
2023/05/27 11:44:53;;;;;;;;;12.75;12.00;;;;;;;;4967264;28;45511;-84
2023/05/27 11:47:18;;;;;;;;;7.50;6.50;;;;;;;;4954570;28;45605;-88
2023/05/27 11:49:44;;;;;;;;;9.25;7.50;;;;;;;;4953675;28;45729;-83
2023/05/27 11:52:10;;;;;;;;;5.00;1.50;;;;;;;;4954099;28;45536;-82
2023/05/27 11:54:37;;;;;;;;;7.25;7.25;;;;;;;;4959611;28;45719;-82
2023/05/27 11:57:06;;;;;;;;;13.25;9.00;;;;;;;;4957979;28;45561;-81
2023/05/27 11:59:31;;;;;;;;;7.50;7.50;;;;;;;;4952610;28;46056;-84
2023/05/27 12:01:57;;;;;;;;;12.25;7.75;;;;;;;;4960146;28;45829;-82
2023/05/27 12:04:22;;;;;;;;;12.50;9.00;;;;;;;;4950956;28;45450;-83
2023/05/27 12:06:47;;;;;;;;;8.00;6.75;;;;;;;;4965133;28;44783;-83
2023/05/27 12:09:13;;;;;;;;;8.50;7.25;;;;;;;;4975327;28;46252;-82
2023/05/27 12:11:39;;;;;;;;;9.75;6.25;;;;;;;;4976591;28;45628;-84
2023/05/27 12:14:04;;;;;;;;;9.00;8.00;;;;;;;;4954815;28;45406;-83
2023/05/27 12:16:30;;;;;;;;;8.50;7.50;;;;;;;;4957756;28;45345;-84
2023/05/27 12:18:55;;;;;;;;;7.50;7.25;;;;;;;;4950880;28;46433;-83
2023/05/27 12:21:20;;;;;;;;;9.25;6.00;;;;;;;;4958543;28;45428;-82
2023/05/27 12:23:46;;;;;;;;;7.50;7.50;;;;;;;;4958759;28;44873;-82
2023/05/27 12:26:12;;;;;;;;;9.67;8.33;;;;;;;;4954050;28;46615;-85
2023/05/27 12:28:37;;;;;;;;;11.00;7.75;;;;;;;;4964325;28;45772;-81
2023/05/27 12:31:03;;;;;;;;;2.00;2.00;;;;;;;;4965521;28;45766;-81
2023/05/27 12:33:29;;;;;;;;;9.50;9.25;;;;;;;;4967293;28;45536;-81
2023/05/27 12:35:54;;;;;;;;;8.25;7.25;;;;;;;;4959844;28;45405;-80
2023/05/27 12:38:20;;;;;;;;;12.67;8.67;;;;;;;;4955871;28;45476;-81
2023/05/27 12:40:46;;;;;;;;;10.50;10.50;;;;;;;;4957400;28;45800;-75
2023/05/27 12:43:12;;;;;;;;;8.75;8.25;;;;;;;;4955447;28;45474;-76
2023/05/27 12:45:37;;;;;;;;;14.50;9.00;;;;;;;;4959952;28;46073;-75
2023/05/27 12:48:03;;;;;;;;;9.25;9.00;;;;;;;;4952941;28;45625;-77
2023/05/27 12:50:28;;;;;;;;;12.00;9.00;;;;;;;;4952417;28;46083;-75
2023/05/27 12:52:54;;;;;;;;;17.00;11.00;;;;;;;;4947680;28;45835;-75
2023/05/27 12:55:24;;;;;;;;;10.75;8.75;;;;;;;;4953524;28;45897;-76
2023/05/27 12:57:50;;;;;;;;;9.50;7.25;;;;;;;;4953801;28;45828;-75
2023/05/27 13:00:16;;;;;;;;;11.33;7.33;;;;;;;;4951931;28;46476;-77
2023/05/27 13:02:42;;;;;;;;;9.25;8.50;;;;;;;;4952931;28;45736;-75
2023/05/27 13:05:08;;;;;;;;;10.67;9.00;;;;;;;;4946653;28;45602;-74
2023/05/27 13:07:33;;;;;;;;;8.67;7.33;;;;;;;;4956555;28;45666;-77
2023/05/27 13:10:03;;;;;;;;;12.00;9.33;;;;;;;;4950708;28;48241;-75
2023/05/27 13:12:28;;;;;;;;;12.67;9.67;;;;;;;;4948606;28;45444;-76
2023/05/27 13:14:54;;;;;;;;;7.67;7.67;;;;;;;;4952414;28;45519;-74
2023/05/27 13:17:19;;;;;;;;;7.00;5.00;;;;;;;;4952198;28;45882;-76
2023/05/27 13:19:44;;;;;;;;;14.00;9.25;;;;;;;;4950299;28;45556;-75
2023/05/27 13:22:09;;;;;;;;;16.00;11.75;;;;;;;;4952706;28;45518;-73
2023/05/27 13:24:35;;;;;;;;;9.25;8.25;;;;;;;;4952523;28;45483;-75
2023/05/27 13:27:00;;;;;;;;;10.33;6.67;;;;;;;;4952468;28;45692;-76
2023/05/27 13:29:26;;;;;;;;;2.25;1.50;;;;;;;;4952742;28;46583;-76
2023/05/27 13:31:51;;;;;;;;;5.50;5.50;;;;;;;;4960723;28;45792;-76
2023/05/27 13:34:16;;;;;;;;;3.75;3.75;;;;;;;;4947292;28;45816;-76
2023/05/27 13:36:41;;;;;;;;;9.25;9.00;;;;;;;;4952371;28;45806;-76
2023/05/27 13:39:07;;;;;;;;;8.00;7.67;;;;;;;;4953312;28;46195;-73
2023/05/27 13:41:32;;;;;;;;;13.00;10.50;;;;;;;;4960543;28;45441;-75
2023/05/27 13:43:57;;;;;;;;;13.00;10.00;;;;;;;;4960445;28;45415;-76
2023/05/27 13:46:23;;;;;;;;;11.00;8.50;;;;;;;;4952183;28;46218;-75
2023/05/27 13:48:48;;;;;;;;;11.00;8.25;;;;;;;;4952752;28;45767;-76
2023/05/27 13:51:13;;;;;;;;;10.33;8.67;;;;;;;;4940736;28;45508;-74
2023/05/27 13:53:39;;;;;;;;;13.67;9.67;;;;;;;;4966060;28;45539;-73
2023/05/27 13:56:04;;;;;;;;;10.75;8.75;;;;;;;;4952866;28;45373;-74
2023/05/27 13:58:29;;;;;;;;;13.25;10.00;;;;;;;;4959260;28;45457;-74
2023/05/27 14:00:55;;;;;;;;;9.00;8.25;;;;;;;;4952375;28;45277;-73
2023/05/27 14:03:20;;;;;;;;;10.50;9.50;;;;;;;;4952864;28;45620;-73
2023/05/27 14:05:46;;;;;;;;;8.33;8.33;;;;;;;;4943394;28;45406;-73
2023/05/27 14:08:11;;;;;;;;;12.50;7.50;;;;;;;;4951082;28;47313;-74
2023/05/27 14:10:36;;;;;;;;;11.25;10.00;;;;;;;;4952300;28;45584;-72
2023/05/27 14:13:02;;;;;;;;;6.00;6.00;;;;;;;;4950080;28;45457;-72
2023/05/27 14:15:28;;;;;;;;;11.25;11.25;;;;;;;;4949350;28;45405;-73
2023/05/27 14:17:54;;;;;;;;;9.50;9.50;;;;;;;;4950776;28;45994;-71
2023/05/27 14:20:20;;;;;;;;;7.75;6.75;;;;;;;;4950611;28;45457;-73
2023/05/27 14:22:45;;;;;;;;;9.25;7.50;;;;;;;;4949996;28;45927;-78
2023/05/27 14:25:11;;;;;;;;;13.00;9.33;;;;;;;;4947514;28;47005;-73
2023/05/27 14:27:36;;;;;;;;;9.00;7.25;;;;;;;;4940222;28;45501;-74
2023/05/27 14:30:02;;;;;;;;;10.33;10.33;;;;;;;;4938040;28;45491;-73
2023/05/27 14:32:27;;;;;;;;;10.00;8.75;;;;;;;;4951549;28;45620;-76